createdAt,value
2018-06-25T00:00:47.937Z,10.48
2018-06-25T00:03:16.985Z,9.47
2018-06-25T00:05:49.391Z,9.30
2018-06-25T00:08:18.421Z,11.63
2018-06-25T00:10:49.255Z,9.67
2018-06-25T00:13:19.255Z,10.77
2018-06-25T00:18:30.554Z,11.07
2018-06-25T00:20:59.635Z,10.20
2018-06-25T00:23:28.723Z,11.17
2018-06-25T00:25:57.770Z,9.27
2018-06-25T00:28:26.838Z,9.23
2018-06-25T00:30:57.890Z,10.03
2018-06-25T00:36:02.749Z,12.27
2018-06-25T00:38:32.762Z,11.73
2018-06-25T00:43:37.766Z,13.67
2018-06-25T00:46:06.816Z,12.33
2018-06-25T00:48:38.010Z,13.02
2018-06-25T00:51:07.318Z,12.60
2018-06-25T00:53:36.371Z,13.23
2018-06-25T00:56:06.424Z,15.07
2018-06-25T00:58:35.528Z,14.00
2018-06-25T01:01:04.588Z,13.20
2018-06-25T01:03:33.736Z,12.97
2018-06-25T01:06:02.857Z,16.10
2018-06-25T01:08:31.851Z,17.30
2018-06-25T01:11:00.934Z,15.00
2018-06-25T01:13:29.997Z,18.37
2018-06-25T01:16:02.473Z,19.60
2018-06-25T01:18:31.585Z,21.00
2018-06-25T01:21:00.670Z,17.63
2018-06-25T01:23:29.726Z,16.70
2018-06-25T01:25:58.785Z,18.40
2018-06-25T01:28:27.850Z,18.83
2018-06-25T01:30:56.905Z,23.80
2018-06-25T01:33:25.981Z,20.80
2018-06-25T01:35:55.973Z,19.73
2018-06-25T01:38:25.036Z,21.60
2018-06-25T01:40:54.105Z,22.27
2018-06-25T01:43:24.142Z,28.27
2018-06-25T01:48:28.979Z,28.30
2018-06-25T01:50:58.050Z,22.67
2018-06-25T01:53:27.093Z,22.60
2018-06-25T01:55:58.090Z,22.27
2018-06-25T01:58:27.177Z,29.57
2018-06-25T02:03:32.808Z,31.15
2018-06-25T02:06:01.861Z,26.53
2018-06-25T02:08:30.940Z,32.00
2018-06-25T02:14:10.544Z,32.15
2018-06-25T02:16:39.602Z,29.27
2018-06-25T02:19:09.545Z,33.20
2018-06-25T02:21:38.614Z,28.90
2018-06-25T02:24:07.847Z,27.57
2018-06-25T02:26:36.894Z,28.23
2018-06-25T02:29:05.953Z,28.23
2018-06-25T02:31:36.275Z,30.93
2018-06-25T02:34:07.233Z,30.87
2018-06-25T02:36:36.300Z,35.80
2018-06-25T02:39:09.099Z,30.73
2018-06-25T02:41:38.210Z,29.63
2018-06-25T02:44:08.203Z,35.20
2018-06-25T02:46:37.268Z,32.33
2018-06-25T02:49:06.333Z,29.93
2018-06-25T02:51:35.398Z,31.67
2018-06-25T02:56:40.290Z,37.80
2018-06-25T02:59:16.530Z,31.27
2018-06-25T03:01:45.571Z,32.27
2018-06-25T03:04:14.647Z,28.93
2018-06-25T03:06:43.726Z,27.90
2018-06-25T03:09:13.681Z,29.43
2018-06-25T03:11:42.749Z,28.47
2018-06-25T03:14:12.991Z,33.17
2018-06-25T03:16:42.064Z,30.53
2018-06-25T03:19:12.402Z,32.00
2018-06-25T03:21:41.476Z,30.90
2018-06-25T03:26:46.277Z,27.10
2018-06-25T03:29:15.492Z,24.97
2018-06-25T03:31:44.566Z,24.27
2018-06-25T03:34:13.978Z,29.05
2018-06-25T03:36:43.057Z,24.93
2018-06-25T03:39:12.421Z,28.98
2018-06-25T03:41:41.578Z,29.15
2018-06-25T03:46:46.453Z,26.35
2018-06-25T03:49:15.525Z,25.67
2018-06-25T03:51:44.653Z,25.20
2018-06-25T03:54:13.803Z,24.93
2018-06-25T03:56:42.853Z,26.67
2018-06-25T03:59:13.358Z,27.20
2018-06-25T04:01:42.511Z,32.20
2018-06-25T04:04:13.061Z,27.77
2018-06-25T04:06:42.135Z,30.90
2018-06-25T04:09:12.832Z,25.20
2018-06-25T04:11:41.879Z,27.77
2018-06-25T04:14:16.097Z,21.77
2018-06-25T04:16:45.241Z,28.70
2018-06-25T04:21:50.291Z,24.67
2018-06-25T04:24:20.290Z,24.73
2018-06-25T04:29:25.060Z,24.92
2018-06-25T04:31:54.117Z,26.35
2018-06-25T04:34:23.180Z,22.67
2018-06-25T04:36:52.297Z,19.90
2018-06-25T04:39:22.195Z,20.83
2018-06-25T04:41:51.463Z,20.57
2018-06-25T04:44:20.560Z,21.42
2018-06-25T04:49:25.333Z,22.13
2018-06-25T04:51:54.409Z,20.07
2018-06-25T04:54:24.465Z,18.73
2018-06-25T04:56:53.569Z,17.90
2018-06-25T04:59:23.747Z,21.37
2018-06-25T05:01:52.836Z,21.30
2018-06-25T05:04:21.945Z,18.23
2018-06-25T05:06:51.020Z,17.23
2018-06-25T05:09:20.111Z,19.70
2018-06-25T05:11:51.087Z,17.13
2018-06-25T05:14:21.098Z,19.57
2018-06-25T05:16:51.053Z,17.87
2018-06-25T05:21:56.842Z,21.80
2018-06-25T05:27:01.711Z,24.10
2018-06-25T05:29:31.670Z,24.02
2018-06-25T05:32:00.739Z,19.00
2018-06-25T05:34:30.052Z,18.70
2018-06-25T05:36:59.095Z,17.30
2018-06-25T05:39:28.158Z,18.42
2018-06-25T05:41:57.374Z,17.60
2018-06-25T05:44:26.440Z,15.50
2018-06-25T05:46:55.536Z,14.07
2018-06-25T05:49:24.674Z,15.60
2018-06-25T05:51:53.734Z,14.93
2018-06-25T05:54:25.019Z,14.10
2018-06-25T05:57:02.618Z,14.00
2018-06-25T05:59:39.281Z,14.10
2018-06-25T06:02:15.781Z,13.13
2018-06-25T06:04:48.429Z,12.70
2018-06-25T06:07:26.526Z,13.67
2018-06-25T06:09:55.754Z,12.93
2018-06-25T06:12:24.830Z,13.10
2018-06-25T06:14:53.919Z,13.00
2018-06-25T06:17:23.091Z,13.90
2018-06-25T06:19:52.205Z,13.83
2018-06-25T06:22:21.322Z,12.17
2018-06-25T06:24:50.417Z,16.77
2018-06-25T06:27:19.565Z,13.33
2018-06-25T06:29:50.713Z,14.60
2018-06-25T06:32:19.768Z,11.70
2018-06-25T06:34:48.844Z,12.97
2018-06-25T06:37:17.953Z,12.80
2018-06-25T06:39:48.050Z,10.83
2018-06-25T06:42:17.094Z,12.20
2018-06-25T06:44:48.151Z,11.13
2018-06-25T06:47:17.209Z,13.77
2018-06-25T06:49:49.749Z,13.35
2018-06-25T06:52:18.957Z,13.73
2018-06-25T06:54:53.355Z,11.67
2018-06-25T06:57:23.606Z,10.27
2018-06-25T06:59:52.647Z,11.80
2018-06-25T07:02:21.717Z,10.63
2018-06-25T07:04:51.702Z,9.97
2018-06-25T07:07:21.443Z,10.60
2018-06-25T07:09:50.696Z,11.45
2018-06-25T07:12:19.780Z,10.80
2018-06-25T07:14:48.849Z,12.27
2018-06-25T07:17:18.029Z,10.40
2018-06-25T07:19:47.185Z,10.32
2018-06-25T07:22:16.214Z,10.30
2018-06-25T07:24:49.914Z,8.37
2018-06-25T07:27:18.996Z,7.80
2018-06-25T07:29:48.153Z,7.90
2018-06-25T07:32:17.370Z,8.23
2018-06-25T07:37:22.214Z,7.60
2018-06-25T07:39:51.265Z,7.83
2018-06-25T07:44:56.038Z,6.97
2018-06-25T07:47:26.570Z,6.93
2018-06-25T07:49:55.727Z,6.40
2018-06-25T07:52:27.813Z,5.17
2018-06-25T07:54:56.879Z,6.50
2018-06-25T07:57:26.921Z,6.40
2018-06-25T07:59:55.994Z,7.10
2018-06-25T08:02:34.169Z,6.30
2018-06-25T08:05:03.220Z,6.03
2018-06-25T08:07:32.269Z,6.30
2018-06-25T08:10:01.391Z,7.40
2018-06-25T08:12:30.423Z,7.73
2018-06-25T08:14:59.464Z,5.70
2018-06-25T08:17:30.423Z,6.73
2018-06-25T08:19:59.464Z,7.20
2018-06-25T08:22:36.918Z,6.23
2018-06-25T08:25:05.977Z,7.03
2018-06-25T08:27:42.601Z,6.83
2018-06-25T08:30:11.676Z,6.27
2018-06-25T08:32:41.669Z,5.27
2018-06-25T08:35:18.213Z,5.63
2018-06-25T08:37:47.370Z,5.57
2018-06-25T08:40:17.367Z,6.63
2018-06-25T08:42:49.117Z,6.10
2018-06-25T08:45:21.201Z,6.83
2018-06-25T08:47:50.255Z,6.20
2018-06-25T08:50:37.060Z,5.90
2018-06-25T08:53:27.355Z,6.30
2018-06-25T08:55:56.389Z,5.27
2018-06-25T09:01:01.243Z,6.27
2018-06-25T09:06:06.102Z,6.60
2018-06-25T09:11:10.935Z,5.53
2018-06-25T09:16:15.745Z,5.28
2018-06-25T09:18:44.806Z,4.28
2018-06-25T09:21:13.982Z,4.70
2018-06-25T09:23:43.183Z,4.40
2018-06-25T09:26:12.209Z,4.03
2018-06-25T09:28:42.186Z,4.90
2018-06-25T09:31:18.866Z,3.47
2018-06-25T09:33:47.904Z,3.90
2018-06-25T09:36:16.974Z,4.23
2018-06-25T09:41:22.882Z,4.23
2018-06-25T09:43:51.888Z,4.23
2018-06-25T09:48:56.953Z,4.10
2018-06-25T09:51:26.008Z,4.20
2018-06-25T09:53:55.054Z,4.80
2018-06-25T09:56:37.481Z,4.43
2018-06-25T09:59:08.727Z,4.10
2018-06-25T10:01:45.407Z,4.30
2018-06-25T10:04:25.261Z,4.17
2018-06-25T10:06:54.356Z,4.90
2018-06-25T10:09:31.741Z,3.97
2018-06-25T10:12:04.634Z,4.60
2018-06-25T10:14:33.713Z,4.30
2018-06-25T10:17:03.738Z,4.20
2018-06-25T10:19:33.883Z,4.40
2018-06-25T10:22:10.172Z,4.60
2018-06-25T10:24:42.981Z,5.00
2018-06-25T10:27:12.038Z,4.20
2018-06-25T10:29:48.898Z,4.07
2018-06-25T10:32:17.971Z,4.40
2018-06-25T10:35:04.160Z,6.70
2018-06-25T10:37:33.215Z,4.33
2018-06-25T10:40:06.180Z,5.80
2018-06-25T10:43:00.947Z,4.23
2018-06-25T10:45:34.959Z,6.20
2018-06-25T10:48:05.022Z,4.20
2018-06-25T10:53:09.989Z,4.40
2018-06-25T10:55:39.110Z,4.40
2018-06-25T10:58:08.192Z,4.67
2018-06-25T11:00:38.250Z,4.33
2018-06-25T11:05:47.439Z,4.57
2018-06-25T11:08:16.469Z,3.50
2018-06-25T11:10:45.538Z,3.97
2018-06-25T11:13:14.942Z,3.43
2018-06-25T11:15:47.581Z,4.20
2018-06-25T11:18:17.603Z,3.57
2018-06-25T11:20:48.677Z,2.97
2018-06-25T11:23:17.809Z,3.43
2018-06-25T11:25:46.853Z,3.10
2018-06-25T11:28:15.899Z,2.70
2018-06-25T11:30:48.434Z,2.73
2018-06-25T11:33:17.591Z,2.63
2018-06-25T11:35:50.244Z,2.50
2018-06-25T11:38:19.472Z,3.13
2018-06-25T11:41:05.682Z,3.33
2018-06-25T11:43:34.858Z,4.33
2018-06-25T11:46:09.362Z,3.15
2018-06-25T11:48:46.433Z,3.23
2018-06-25T11:51:15.507Z,3.70
2018-06-25T11:53:44.577Z,2.47
2018-06-25T11:56:13.789Z,2.07
2018-06-25T11:58:46.616Z,2.43
2018-06-25T12:01:15.675Z,2.40
2018-06-25T12:03:52.496Z,2.00
2018-06-25T12:06:21.567Z,1.53
2018-06-25T12:11:26.542Z,1.75
2018-06-25T12:14:17.017Z,1.57
2018-06-25T12:16:45.994Z,1.77
2018-06-25T12:19:32.585Z,1.75
2018-06-25T12:22:01.729Z,1.60
2018-06-25T12:24:37.827Z,2.23
2018-06-25T12:27:15.031Z,1.53
2018-06-25T12:29:44.155Z,1.60
2018-06-25T12:34:48.961Z,2.03
2018-06-25T12:37:22.685Z,1.60
2018-06-25T12:39:51.786Z,3.77
2018-06-25T12:42:21.847Z,1.20
2018-06-25T12:44:50.906Z,1.20
2018-06-25T12:47:28.204Z,1.30
2018-06-25T12:50:06.515Z,2.27
2018-06-25T12:52:35.630Z,1.43
2018-06-25T12:55:05.876Z,1.40
2018-06-25T12:57:34.913Z,1.33
2018-06-25T13:00:05.908Z,2.67
2018-06-25T13:02:34.950Z,2.95
2018-06-25T13:05:04.114Z,3.53
2018-06-25T13:10:08.983Z,3.40
2018-06-25T13:12:38.155Z,2.03
2018-06-25T13:15:33.922Z,2.03
2018-06-25T13:18:06.051Z,3.93
2018-06-25T13:20:35.272Z,2.30
2018-06-25T13:25:40.701Z,1.83
2018-06-25T13:32:57.797Z,2.40
2018-06-25T13:35:26.973Z,1.60
2018-06-25T13:38:03.842Z,1.77
2018-06-25T13:43:35.385Z,1.80
2018-06-25T13:46:12.831Z,2.13
2018-06-25T13:48:41.882Z,2.13
2018-06-25T13:51:21.534Z,2.13
2018-06-25T13:53:54.538Z,3.40
2018-06-25T14:01:43.367Z,2.30
2018-06-25T14:04:17.417Z,2.17
2018-06-25T14:06:50.390Z,1.85
2018-06-25T14:09:23.046Z,2.10
2018-06-25T14:11:57.164Z,2.60
2018-06-25T14:14:34.106Z,2.80
2018-06-25T14:17:10.364Z,2.55
2018-06-25T14:19:39.431Z,2.15
2018-06-25T14:22:35.929Z,3.30
2018-06-25T14:25:05.003Z,1.90
2018-06-25T14:27:34.982Z,4.97
2018-06-25T14:30:11.789Z,1.70
2018-06-25T14:32:40.838Z,2.83
2018-06-25T14:35:10.014Z,1.73
2018-06-25T14:37:39.074Z,3.30
2018-06-25T14:42:44.090Z,2.40
2018-06-25T14:45:13.146Z,2.60
2018-06-25T14:47:42.186Z,2.40
2018-06-25T14:52:51.051Z,3.53
2018-06-25T14:55:20.152Z,2.63
2018-06-25T14:57:49.154Z,3.58
2018-06-25T15:00:18.346Z,3.00
2018-06-25T15:02:47.442Z,2.80
2018-06-25T15:05:23.653Z,2.23
2018-06-25T15:07:54.682Z,2.40
2018-06-25T15:10:23.746Z,2.30
2018-06-25T15:15:32.207Z,3.22
2018-06-25T15:18:01.516Z,2.53
2018-06-25T15:25:47.220Z,2.72
2018-06-25T15:28:20.950Z,4.68
2018-06-25T15:30:51.012Z,2.77
2018-06-25T15:35:56.745Z,3.10
2018-06-25T15:38:45.154Z,2.97
2018-06-25T15:41:14.207Z,1.80
2018-06-25T15:43:43.268Z,2.37
2018-06-25T15:46:12.324Z,3.37
2018-06-25T15:51:17.314Z,1.50
2018-06-25T15:53:48.585Z,1.30
2018-06-25T15:58:53.417Z,1.30
2018-06-25T16:01:24.507Z,1.60
2018-06-25T16:03:56.697Z,1.90
2018-06-25T16:09:03.769Z,1.62
2018-06-25T16:11:37.739Z,1.40
2018-06-25T16:14:06.816Z,1.33
2018-06-25T16:19:11.606Z,1.90
2018-06-25T16:21:40.656Z,2.10
2018-06-25T16:24:09.855Z,1.50
2018-06-25T16:26:38.919Z,1.50
2018-06-25T16:29:07.965Z,2.10
2018-06-25T16:31:37.045Z,1.73
2018-06-25T16:34:06.280Z,1.40
2018-06-25T16:36:35.288Z,1.20
2018-06-25T16:39:04.789Z,1.47
2018-06-25T16:44:09.664Z,1.50
2018-06-25T16:46:38.701Z,1.30
2018-06-25T16:49:07.878Z,5.13
2018-06-25T16:51:51.882Z,1.90
2018-06-25T16:54:21.920Z,1.43
2018-06-25T16:59:31.208Z,1.50
2018-06-25T17:02:01.241Z,1.60
2018-06-25T17:04:33.763Z,1.40
2018-06-25T17:07:04.226Z,2.47
2018-06-25T17:09:33.281Z,1.40
2018-06-25T17:12:03.365Z,1.90
2018-06-25T17:14:32.414Z,2.93
2018-06-25T17:17:01.949Z,3.40
2018-06-25T17:19:31.046Z,1.43
2018-06-25T17:22:01.197Z,2.73
2018-06-25T17:24:30.235Z,1.10
2018-06-25T17:27:00.518Z,1.83
2018-06-25T17:29:29.581Z,1.10
2018-06-25T17:31:59.736Z,1.50
2018-06-25T17:34:28.872Z,1.90
2018-06-25T17:36:59.618Z,1.83
2018-06-25T17:39:32.509Z,4.77
2018-06-25T17:42:05.321Z,2.50
2018-06-25T17:44:34.381Z,2.13
2018-06-25T17:52:29.063Z,1.80
2018-06-25T17:54:58.512Z,1.90
2018-06-25T17:57:27.749Z,1.77
2018-06-25T17:59:58.742Z,1.90
2018-06-25T18:02:27.858Z,1.93
2018-06-25T18:07:32.659Z,1.80
2018-06-25T18:10:02.846Z,2.00
2018-06-25T18:12:31.978Z,2.07
2018-06-25T18:15:02.297Z,1.70
2018-06-25T18:17:31.441Z,1.73
2018-06-25T18:20:04.359Z,2.10
2018-06-25T18:22:33.420Z,2.60
2018-06-25T18:25:03.068Z,2.37
2018-06-25T18:27:32.116Z,1.90
2018-06-25T18:30:02.633Z,1.80
2018-06-25T18:32:32.611Z,2.00
2018-06-25T18:35:01.670Z,4.60
2018-06-25T18:37:30.780Z,2.40
2018-06-25T18:39:59.959Z,4.20
2018-06-25T18:42:29.028Z,1.33
2018-06-25T18:44:58.085Z,1.67
2018-06-25T18:47:27.126Z,2.00
2018-06-25T18:49:57.314Z,3.60
2018-06-25T18:52:26.442Z,3.03
2018-06-25T18:54:55.486Z,3.87
2018-06-25T18:57:24.537Z,2.57
2018-06-25T18:59:53.589Z,1.73
2018-06-25T19:02:22.696Z,2.30
2018-06-25T19:04:51.738Z,2.17
2018-06-25T19:07:20.793Z,1.73
2018-06-25T19:09:49.864Z,1.97
2018-06-25T19:12:18.926Z,2.77
2018-06-25T19:14:47.983Z,1.70
2018-06-25T19:17:17.967Z,1.60
2018-06-25T19:19:48.013Z,2.70
2018-06-25T19:24:55.865Z,2.00
2018-06-25T19:27:24.927Z,1.70
2018-06-25T19:29:54.917Z,2.20
2018-06-25T19:32:23.960Z,2.40
2018-06-25T19:35:04.150Z,2.83
2018-06-25T19:37:33.240Z,2.10
2018-06-25T19:40:02.285Z,2.20
2018-06-25T19:42:31.360Z,2.50
2018-06-25T19:45:09.992Z,1.80
2018-06-25T19:47:40.003Z,3.10
2018-06-25T19:55:20.526Z,3.20
2018-06-25T19:57:50.504Z,2.70
2018-06-25T20:00:19.581Z,2.70
2018-06-25T20:02:48.676Z,2.90
2018-06-25T20:05:19.094Z,2.83
2018-06-25T20:07:48.256Z,3.20
2018-06-25T20:10:17.297Z,3.07
2018-06-25T20:12:46.765Z,2.60
2018-06-25T20:15:16.945Z,3.13
2018-06-25T20:20:21.964Z,3.00
2018-06-25T20:22:53.281Z,3.00
2018-06-25T20:25:22.624Z,3.50
2018-06-25T20:27:51.744Z,2.80
2018-06-25T20:30:22.100Z,5.43
2018-06-25T20:32:51.529Z,3.60
2018-06-25T20:35:20.699Z,4.60
2018-06-25T20:37:49.988Z,3.00
2018-06-25T20:40:20.370Z,3.20
2018-06-25T20:45:25.641Z,4.17
2018-06-25T20:47:54.703Z,15.68
2018-06-25T20:50:23.874Z,8.70
2018-06-25T20:52:53.047Z,3.40
2018-06-25T20:55:23.340Z,3.60
2018-06-25T20:57:52.380Z,5.17
2018-06-25T21:02:57.248Z,4.00
2018-06-25T21:05:26.497Z,4.07
2018-06-25T21:07:55.559Z,3.70
2018-06-25T21:10:24.620Z,4.13
2018-06-25T21:12:53.680Z,3.20
2018-06-25T21:15:22.757Z,3.20
2018-06-25T21:17:51.817Z,3.50
2018-06-25T21:20:20.874Z,3.50
2018-06-25T21:22:49.953Z,5.05
2018-06-25T21:25:20.954Z,3.47
2018-06-25T21:27:49.989Z,3.40
2018-06-25T21:32:54.901Z,3.40
2018-06-25T21:35:25.005Z,3.30
2018-06-25T21:37:54.274Z,7.73
2018-06-25T21:40:24.510Z,2.80
2018-06-25T21:42:53.802Z,2.83
2018-06-25T21:45:22.934Z,3.37
2018-06-25T21:47:52.106Z,4.60
2018-06-25T21:50:24.886Z,3.33
2018-06-25T21:52:54.069Z,5.83
2018-06-25T21:55:24.193Z,3.78
2018-06-25T21:57:53.893Z,3.73
2018-06-25T22:00:25.213Z,3.80
2018-06-25T22:02:54.386Z,3.10
2018-06-25T22:05:23.651Z,3.10
2018-06-25T22:10:28.507Z,3.40
2018-06-25T22:15:33.253Z,3.33
2018-06-25T22:18:03.201Z,3.53
2018-06-25T22:20:33.244Z,4.40
2018-06-25T22:23:20.443Z,2.90
2018-06-25T22:25:50.416Z,3.37
2018-06-25T22:28:19.481Z,3.20
2018-06-25T22:30:48.539Z,2.50
2018-06-25T22:33:17.590Z,3.13
2018-06-25T22:35:46.695Z,3.10
2018-06-25T22:38:15.783Z,3.63
2018-06-25T22:40:45.818Z,3.07
2018-06-25T22:43:14.927Z,3.03
2018-06-25T22:45:44.898Z,2.90
2018-06-25T22:48:13.954Z,2.87
2018-06-25T22:50:48.103Z,4.20
2018-06-25T22:53:17.287Z,4.87
2018-06-25T22:55:54.773Z,4.20
2018-06-25T22:58:23.924Z,4.47
2018-06-25T23:00:52.970Z,4.57
2018-06-25T23:03:22.021Z,3.87
2018-06-25T23:05:51.075Z,5.27
2018-06-25T23:08:20.129Z,4.67
2018-06-25T23:10:49.181Z,3.37
2018-06-25T23:13:18.241Z,3.47
2018-06-25T23:15:48.250Z,3.90
2018-06-25T23:18:17.311Z,3.83
2018-06-25T23:23:22.647Z,4.00
2018-06-25T23:25:51.725Z,4.37
2018-06-25T23:28:20.843Z,3.80
2018-06-25T23:30:49.841Z,4.27
2018-06-25T23:33:18.894Z,4.03
2018-06-25T23:35:48.952Z,4.47
2018-06-25T23:38:18.040Z,3.80
2018-06-25T23:40:47.090Z,4.10
2018-06-25T23:45:51.914Z,5.33
2018-06-25T23:48:20.973Z,4.80
2018-06-25T23:50:51.076Z,3.70
2018-06-25T23:53:20.064Z,6.83
2018-06-25T23:55:49.655Z,4.13
2018-06-25T23:58:19.646Z,5.05
